Taubate, Brazil
Current Conditions -  °F | °C
As of 5:00 AM on Wednesday 26 Nov 2014 (Local Time) from SBSJ Reporting Station
Scattered Clouds Scattered Clouds  
Wind Chill: 68°   Ceiling: Unl
Heat Index: 68°   Visibility: 4mi
Dew Point: 68°   Wind: 3mph
Humidity: 100%   Direction: 130°SE
Pressure: 29.91"   Gusts: NA
Location:  23.02°S, 45.56°W
Report Text: SBSJ 260700Z 13003KT 7000 SCT018 20/20 Q1013
Loading
Personal Weather Stations






























Interactive Weather Map New forecast layout! Learn more

10-Day Weather Forecast

Advertisements
Track Severe Weather on mobile